createdAt,value
2022-08-08T00:01:06.879Z,54.90
2022-08-08T00:04:03.573Z,54.90
2022-08-08T00:06:56.225Z,55.70
2022-08-08T00:09:55.350Z,55.10
2022-08-08T00:12:56.270Z,54.90
2022-08-08T00:15:59.751Z,54.90
2022-08-08T00:18:56.197Z,55.10
2022-08-08T00:21:49.742Z,55.00
2022-08-08T00:24:43.806Z,55.20
2022-08-08T00:27:34.762Z,55.10
2022-08-08T00:30:23.970Z,55.60
2022-08-08T00:33:17.197Z,55.50
2022-08-08T00:36:14.902Z,55.50
2022-08-08T00:41:07.789Z,55.70
2022-08-08T00:42:56.158Z,55.40
2022-08-08T00:46:05.082Z,55.50
2022-08-08T00:49:43.085Z,56.30
2022-08-08T00:52:53.995Z,56.00
2022-08-08T00:56:20.044Z,55.80
2022-08-08T00:59:46.654Z,55.70
2022-08-08T01:04:01.051Z,55.80
2022-08-08T01:07:06.031Z,55.80
2022-08-08T01:10:38.705Z,55.70
2022-08-08T01:14:54.078Z,56.20
2022-08-08T01:18:02.649Z,56.20
2022-08-08T01:21:04.902Z,56.20
2022-08-08T01:24:29.737Z,56.30
2022-08-08T01:27:52.436Z,56.90
2022-08-08T01:32:13.886Z,56.50
2022-08-08T01:35:17.208Z,56.30
2022-08-08T01:38:34.517Z,56.20
2022-08-08T01:41:34.304Z,56.30
2022-08-08T01:44:41.225Z,56.70
2022-08-08T01:48:16.543Z,55.60
2022-08-08T01:51:29.884Z,56.70
2022-08-08T01:55:15.454Z,56.80
2022-08-08T01:58:12.447Z,56.70
2022-08-08T02:01:08.822Z,56.80
2022-08-08T02:04:13.742Z,56.90
2022-08-08T02:07:07.195Z,57.00
2022-08-08T02:10:12.441Z,57.10
2022-08-08T02:13:02.029Z,57.20
2022-08-08T02:15:58.688Z,57.50
2022-08-08T02:18:58.703Z,57.90
2022-08-08T02:22:28.215Z,58.00
2022-08-08T02:25:28.201Z,58.70
2022-08-08T02:28:34.947Z,58.20
2022-08-08T02:31:58.366Z,58.30
2022-08-08T02:35:19.064Z,58.60
2022-08-08T02:38:34.403Z,58.60
2022-08-08T02:41:58.428Z,58.80
2022-08-08T02:45:21.255Z,59.10
2022-08-08T02:48:42.775Z,59.10
2022-08-08T02:52:11.419Z,59.30
2022-08-08T02:55:37.619Z,59.50
2022-08-08T02:59:05.916Z,59.80
2022-08-08T03:03:04.850Z,59.60
2022-08-08T03:06:34.447Z,59.80
2022-08-08T03:10:08.452Z,59.80
2022-08-08T03:15:54.421Z,60.00
2022-08-08T03:16:48.696Z,60.10
2022-08-08T03:19:50.481Z,60.30
2022-08-08T03:22:46.030Z,60.70
2022-08-08T03:25:35.903Z,60.60
2022-08-08T03:28:32.184Z,60.90
2022-08-08T03:32:05.740Z,60.90
2022-08-08T03:34:46.735Z,61.40
2022-08-08T03:38:53.819Z,61.30
2022-08-08T03:40:52.114Z,61.90
2022-08-08T03:43:39.832Z,61.90
2022-08-08T03:46:32.662Z,62.00
2022-08-08T03:49:57.465Z,62.50
2022-08-08T03:52:28.508Z,63.10
2022-08-08T03:55:55.203Z,63.20
2022-08-08T03:58:35.256Z,63.40
2022-08-08T04:02:12.779Z,63.40
2022-08-08T04:04:41.897Z,63.60
2022-08-08T04:07:28.530Z,63.60
2022-08-08T04:10:19.646Z,64.40
2022-08-08T04:13:17.626Z,64.60
2022-08-08T04:16:07.353Z,64.40
2022-08-08T04:18:55.503Z,65.20
2022-08-08T04:21:45.644Z,65.20
2022-08-08T04:24:32.940Z,65.20
2022-08-08T04:28:02.452Z,65.60
2022-08-08T04:30:26.470Z,66.20
2022-08-08T04:33:15.499Z,66.60
2022-08-08T04:36:02.571Z,66.50
2022-08-08T04:39:20.258Z,66.90
2022-08-08T04:41:57.966Z,66.80
2022-08-08T04:44:47.529Z,67.20
2022-08-08T04:47:36.705Z,66.80
2022-08-08T04:50:38.180Z,67.20
2022-08-08T04:54:36.105Z,67.40
2022-08-08T04:56:31.903Z,68.50
2022-08-08T04:59:18.322Z,68.00
2022-08-08T05:02:13.378Z,68.30
2022-08-08T05:05:00.982Z,68.00
2022-08-08T05:07:48.989Z,68.20
2022-08-08T05:10:36.888Z,68.40
2022-08-08T05:13:23.842Z,68.50
2022-08-08T05:16:54.431Z,68.40
2022-08-08T05:20:12.462Z,68.40
2022-08-08T05:22:28.173Z,68.80
2022-08-08T05:25:18.277Z,69.40
2022-08-08T05:28:08.214Z,69.30
2022-08-08T05:30:55.222Z,69.00
2022-08-08T05:33:55.549Z,70.00
2022-08-08T05:36:43.965Z,69.70
2022-08-08T05:39:35.107Z,69.70
2022-08-08T05:42:35.098Z,69.80
2022-08-08T05:45:25.464Z,69.80
2022-08-08T05:48:28.858Z,70.10
2022-08-08T05:51:18.626Z,69.70
2022-08-08T05:54:26.773Z,69.80
2022-08-08T05:57:20.965Z,70.10
2022-08-08T06:00:31.152Z,69.80
2022-08-08T06:03:25.274Z,69.80
2022-08-08T06:06:18.088Z,69.60
2022-08-08T06:09:41.903Z,69.60
2022-08-08T06:12:31.105Z,69.40
2022-08-08T06:15:18.375Z,69.10
2022-08-08T06:18:20.793Z,68.90
2022-08-08T06:21:27.882Z,68.30
2022-08-08T06:24:23.057Z,67.70
2022-08-08T06:27:19.962Z,67.70
2022-08-08T06:30:11.917Z,68.10
2022-08-08T06:33:12.146Z,67.90
2022-08-08T06:36:08.914Z,67.40
2022-08-08T06:38:58.778Z,67.10
2022-08-08T06:41:52.480Z,67.10
2022-08-08T06:44:42.822Z,67.30
2022-08-08T06:47:31.584Z,65.90
2022-08-08T06:50:32.149Z,65.70
2022-08-08T06:53:20.957Z,64.90
2022-08-08T06:56:09.024Z,64.40
2022-08-08T06:58:55.872Z,64.40
2022-08-08T07:02:18.075Z,63.80
2022-08-08T07:04:56.394Z,63.70
2022-08-08T07:07:58.385Z,63.20
2022-08-08T07:10:51.652Z,63.10
2022-08-08T07:14:00.102Z,62.80
2022-08-08T07:16:56.009Z,62.60
2022-08-08T07:19:59.718Z,62.50
2022-08-08T07:23:01.940Z,62.30
2022-08-08T07:25:54.639Z,61.70
2022-08-08T07:28:42.581Z,61.10
2022-08-08T07:31:35.328Z,60.10
2022-08-08T07:34:31.436Z,59.80
2022-08-08T07:37:23.014Z,59.50
2022-08-08T07:40:29.056Z,59.50
2022-08-08T07:43:35.150Z,59.50
2022-08-08T07:46:30.355Z,58.60
2022-08-08T07:49:17.960Z,58.70
2022-08-08T07:52:13.389Z,58.10
2022-08-08T07:55:17.256Z,58.10
2022-08-08T07:58:14.114Z,57.10
2022-08-08T08:01:05.270Z,57.00
2022-08-08T08:03:55.394Z,56.00
2022-08-08T08:06:44.762Z,55.00
2022-08-08T08:09:39.152Z,54.50
2022-08-08T08:12:36.865Z,53.60
2022-08-08T08:15:32.328Z,53.00
2022-08-08T08:18:31.881Z,52.70
2022-08-08T08:21:21.181Z,52.50
2022-08-08T08:24:32.564Z,52.00
2022-08-08T08:27:22.201Z,51.80
2022-08-08T08:30:11.656Z,51.80
2022-08-08T08:32:59.171Z,51.80
2022-08-08T08:36:17.526Z,50.30
2022-08-08T08:38:53.420Z,49.70
2022-08-08T08:41:43.238Z,48.90
2022-08-08T08:44:35.148Z,47.60
2022-08-08T08:47:27.369Z,47.00
2022-08-08T08:50:34.880Z,47.10
2022-08-08T08:53:55.252Z,46.00
2022-08-08T08:56:30.260Z,45.90
2022-08-08T08:59:23.619Z,45.10
2022-08-08T09:02:27.156Z,44.90
2022-08-08T09:05:49.355Z,44.30
2022-08-08T09:08:24.952Z,44.00
2022-08-08T09:11:11.778Z,43.70
2022-08-08T09:13:58.487Z,43.20
2022-08-08T09:16:45.542Z,42.80
2022-08-08T09:22:02.439Z,42.20
2022-08-08T09:22:45.291Z,41.80
2022-08-08T09:25:36.038Z,41.50
2022-08-08T09:28:40.680Z,41.80
2022-08-08T09:31:42.590Z,41.60
2022-08-08T09:34:34.446Z,41.30
2022-08-08T09:38:01.665Z,40.90
2022-08-08T09:40:45.537Z,40.70
2022-08-08T09:44:06.491Z,40.50
2022-08-08T09:47:05.394Z,40.80
2022-08-08T09:50:13.654Z,41.10
2022-08-08T09:53:15.325Z,40.30
2022-08-08T09:56:14.482Z,40.80
2022-08-08T09:59:42.852Z,40.20
2022-08-08T10:02:24.851Z,39.80
2022-08-08T10:05:22.896Z,39.30
2022-08-08T10:08:13.963Z,39.70
2022-08-08T10:11:00.841Z,39.00
2022-08-08T10:13:57.394Z,39.00
2022-08-08T10:16:44.737Z,39.50
2022-08-08T10:19:46.100Z,40.00
2022-08-08T10:23:03.541Z,39.40
2022-08-08T10:25:57.071Z,39.10
2022-08-08T10:28:55.710Z,38.40
2022-08-08T10:32:01.304Z,37.80
2022-08-08T10:35:00.424Z,38.00
2022-08-08T10:37:54.426Z,38.40
2022-08-08T10:40:42.724Z,38.50
2022-08-08T10:43:40.305Z,37.60
2022-08-08T10:46:31.839Z,37.40
2022-08-08T10:50:00.707Z,37.30
2022-08-08T10:52:31.179Z,37.00
2022-08-08T10:55:40.730Z,36.50
2022-08-08T10:58:29.758Z,36.30
2022-08-08T11:01:20.535Z,38.10
2022-08-08T11:04:11.810Z,37.10
2022-08-08T11:07:01.924Z,37.70
2022-08-08T11:09:49.002Z,36.70
2022-08-08T11:12:45.212Z,36.60
2022-08-08T11:15:35.189Z,36.10
2022-08-08T11:18:40.730Z,36.10
2022-08-08T11:21:35.123Z,35.10
2022-08-08T11:24:23.052Z,35.60
2022-08-08T11:27:20.097Z,35.40
2022-08-08T11:30:19.946Z,35.80
2022-08-08T11:33:12.353Z,35.90
2022-08-08T11:36:00.715Z,35.60
2022-08-08T11:38:55.541Z,34.40
2022-08-08T11:41:45.129Z,34.80
2022-08-08T11:44:32.973Z,34.60
2022-08-08T11:47:21.065Z,33.70
2022-08-08T11:50:10.286Z,34.10
2022-08-08T11:52:59.553Z,34.00
2022-08-08T11:55:50.436Z,34.30
2022-08-08T11:58:37.703Z,34.50
2022-08-08T12:01:33.227Z,33.40
2022-08-08T12:04:24.285Z,34.00
2022-08-08T12:07:17.333Z,32.70
2022-08-08T12:10:13.826Z,32.80
2022-08-08T12:13:05.064Z,32.60
2022-08-08T12:15:52.113Z,31.90
2022-08-08T12:18:46.970Z,31.10
2022-08-08T12:21:59.353Z,30.70
2022-08-08T12:24:53.792Z,30.20
2022-08-08T12:27:45.668Z,30.00
2022-08-08T12:30:35.945Z,29.70
2022-08-08T12:33:37.532Z,28.90
2022-08-08T12:36:46.390Z,29.70
2022-08-08T12:39:56.243Z,29.40
2022-08-08T12:42:49.104Z,28.50
2022-08-08T12:45:57.809Z,28.60
2022-08-08T12:49:22.140Z,27.90
2022-08-08T12:52:02.464Z,27.90
2022-08-08T12:54:49.351Z,27.60
2022-08-08T12:57:56.119Z,27.10
2022-08-08T13:00:44.825Z,28.00
2022-08-08T13:03:35.326Z,27.00
2022-08-08T13:06:23.474Z,27.30
2022-08-08T13:09:13.381Z,26.60
2022-08-08T13:12:18.034Z,26.10
2022-08-08T13:15:08.954Z,26.00
2022-08-08T13:18:11.494Z,25.20
2022-08-08T13:21:00.562Z,26.00
2022-08-08T13:23:49.645Z,25.90
2022-08-08T13:26:36.871Z,25.30
2022-08-08T13:29:24.158Z,25.40
2022-08-08T13:32:11.055Z,25.10
2022-08-08T13:35:01.073Z,24.90
2022-08-08T13:38:04.856Z,25.60
2022-08-08T13:40:53.903Z,25.50
2022-08-08T13:43:42.706Z,25.90
2022-08-08T13:46:29.303Z,25.00
2022-08-08T13:50:33.646Z,24.90
2022-08-08T13:52:38.024Z,24.80
2022-08-08T13:55:36.175Z,25.30
2022-08-08T13:58:23.549Z,25.00
2022-08-08T14:01:19.680Z,25.40
2022-08-08T14:04:21.989Z,26.10
2022-08-08T14:07:10.402Z,25.20
2022-08-08T14:10:04.846Z,25.40
2022-08-08T14:12:53.033Z,26.90
2022-08-08T14:15:46.496Z,25.40
2022-08-08T14:18:53.670Z,25.90
2022-08-08T14:21:49.159Z,25.30
2022-08-08T14:24:40.257Z,25.30
2022-08-08T14:27:35.410Z,25.40
2022-08-08T14:30:35.598Z,26.30
2022-08-08T14:33:27.156Z,27.30
2022-08-08T14:36:33.655Z,28.60
2022-08-08T14:39:24.971Z,30.20
2022-08-08T14:42:35.854Z,31.60
2022-08-08T14:45:33.295Z,32.10
2022-08-08T14:48:40.988Z,32.20
2022-08-08T14:51:51.866Z,32.60
2022-08-08T14:54:47.418Z,34.20
2022-08-08T14:58:06.411Z,34.30
2022-08-08T15:00:44.351Z,34.30
2022-08-08T15:03:38.560Z,34.50
2022-08-08T15:06:25.766Z,35.30
2022-08-08T15:09:12.603Z,35.80
2022-08-08T15:11:59.427Z,34.60
2022-08-08T15:14:47.133Z,35.70
2022-08-08T15:17:36.629Z,35.30
2022-08-08T15:20:23.948Z,35.50
2022-08-08T15:23:12.129Z,35.90
2022-08-08T15:26:03.273Z,35.50
2022-08-08T15:28:50.848Z,35.20
2022-08-08T15:32:17.654Z,35.50
2022-08-08T15:34:47.570Z,36.20
2022-08-08T15:37:34.994Z,35.20
2022-08-08T15:40:22.323Z,35.10
2022-08-08T15:43:34.934Z,35.20
2022-08-08T15:46:27.254Z,35.00
2022-08-08T15:49:23.084Z,35.40
2022-08-08T15:52:15.423Z,36.50
2022-08-08T15:55:03.849Z,35.80
2022-08-08T15:57:51.484Z,35.50
2022-08-08T16:00:38.128Z,35.30
2022-08-08T16:03:33.619Z,35.70
2022-08-08T16:06:28.576Z,35.50
2022-08-08T16:13:05.742Z,35.80
2022-08-08T16:13:11.643Z,36.00
2022-08-08T16:15:32.607Z,36.00
2022-08-08T16:18:19.830Z,35.80
2022-08-08T16:21:26.429Z,36.20
2022-08-08T16:24:14.948Z,36.40
2022-08-08T16:27:02.258Z,36.10
2022-08-08T16:30:08.707Z,36.40
2022-08-08T16:32:55.161Z,36.20
2022-08-08T16:35:43.536Z,36.00
2022-08-08T16:38:36.445Z,36.40
2022-08-08T16:41:32.271Z,36.40
2022-08-08T16:44:27.862Z,36.70
2022-08-08T16:47:31.568Z,36.80
2022-08-08T16:50:29.017Z,36.80
2022-08-08T16:55:05.808Z,36.70
2022-08-08T16:56:23.764Z,36.60
2022-08-08T16:59:12.918Z,36.60
2022-08-08T17:01:59.541Z,36.70
2022-08-08T17:04:46.080Z,36.70
2022-08-08T17:07:32.846Z,36.60
2022-08-08T17:10:20.806Z,36.60
2022-08-08T17:13:08.207Z,36.50
2022-08-08T17:15:58.051Z,36.70
2022-08-08T17:18:45.443Z,37.40
2022-08-08T17:21:41.455Z,38.50
2022-08-08T17:24:29.976Z,37.50
2022-08-08T17:27:17.569Z,37.90
2022-08-08T17:30:08.578Z,37.60
2022-08-08T17:34:49.473Z,37.50
2022-08-08T17:36:12.580Z,37.90
2022-08-08T17:39:46.096Z,37.60
2022-08-08T17:42:18.502Z,37.70
2022-08-08T17:45:06.913Z,37.70
2022-08-08T17:48:02.667Z,37.30
2022-08-08T17:50:50.326Z,36.90
2022-08-08T17:53:42.549Z,37.00
2022-08-08T17:56:30.956Z,37.20
2022-08-08T17:59:19.268Z,37.10
2022-08-08T18:02:11.297Z,37.70
2022-08-08T18:05:08.550Z,37.70
2022-08-08T18:08:04.469Z,37.90
2022-08-08T18:10:52.233Z,38.30
2022-08-08T18:13:41.638Z,38.60
2022-08-08T18:16:31.241Z,38.80
2022-08-08T18:19:21.218Z,38.70
2022-08-08T18:22:32.742Z,38.90
2022-08-08T18:25:15.790Z,39.10
2022-08-08T18:28:02.788Z,39.00
2022-08-08T18:30:49.723Z,39.60
2022-08-08T18:34:11.508Z,39.70
2022-08-08T18:36:44.469Z,39.30
2022-08-08T18:39:34.839Z,40.00
2022-08-08T18:42:23.426Z,39.70
2022-08-08T18:46:00.871Z,40.00
2022-08-08T18:48:19.153Z,40.40
2022-08-08T18:51:21.499Z,40.70
2022-08-08T18:54:21.843Z,40.70
2022-08-08T18:57:11.056Z,40.60
2022-08-08T18:59:59.134Z,41.20
2022-08-08T19:02:55.605Z,41.30
2022-08-08T19:05:46.501Z,42.10
2022-08-08T19:08:33.036Z,42.10
2022-08-08T19:11:22.589Z,42.50
2022-08-08T19:14:11.408Z,42.90
2022-08-08T19:16:59.049Z,42.80
2022-08-08T19:20:03.014Z,43.10
2022-08-08T19:22:50.070Z,43.00
2022-08-08T19:26:19.665Z,43.50
2022-08-08T19:28:45.192Z,43.70
2022-08-08T19:31:35.453Z,43.20
2022-08-08T19:34:36.762Z,43.60
2022-08-08T19:37:43.039Z,43.60
2022-08-08T19:40:32.800Z,43.80
2022-08-08T19:43:19.276Z,44.10
2022-08-08T19:46:09.909Z,44.40
2022-08-08T19:49:03.195Z,44.20
2022-08-08T19:51:49.642Z,45.00
2022-08-08T19:54:39.436Z,44.30
2022-08-08T19:57:25.889Z,44.60
2022-08-08T20:00:30.310Z,44.80
2022-08-08T20:04:02.454Z,45.20
2022-08-08T20:06:27.010Z,45.20
2022-08-08T20:09:17.249Z,45.10
2022-08-08T20:12:10.928Z,45.20
2022-08-08T20:15:01.317Z,46.20
2022-08-08T20:17:49.124Z,45.90
2022-08-08T20:20:36.082Z,45.90
2022-08-08T20:23:31.146Z,46.00
2022-08-08T20:26:22.752Z,46.30
2022-08-08T20:29:14.312Z,46.50
2022-08-08T20:32:07.308Z,46.40
2022-08-08T20:35:01.031Z,46.30
2022-08-08T20:37:54.776Z,46.50
2022-08-08T20:40:42.894Z,46.60
2022-08-08T20:43:44.124Z,46.50
2022-08-08T20:46:35.450Z,46.60
2022-08-08T20:49:25.162Z,46.80
2022-08-08T20:52:29.139Z,46.80
2022-08-08T20:55:22.883Z,47.10
2022-08-08T20:58:20.294Z,47.00
2022-08-08T21:01:10.859Z,47.10
2022-08-08T21:04:06.411Z,47.30
2022-08-08T21:06:54.254Z,47.30
2022-08-08T21:10:02.054Z,47.60
2022-08-08T21:12:52.869Z,47.80
2022-08-08T21:16:05.030Z,47.70
2022-08-08T21:18:49.358Z,48.00
2022-08-08T21:21:39.564Z,48.10
2022-08-08T21:24:30.295Z,48.20
2022-08-08T21:28:05.208Z,48.40
2022-08-08T21:30:24.521Z,48.70
2022-08-08T21:33:12.495Z,48.80
2022-08-08T21:36:16.949Z,49.20
2022-08-08T21:39:06.134Z,49.10
2022-08-08T21:41:59.310Z,49.20
2022-08-08T21:44:59.049Z,49.30
2022-08-08T21:48:05.599Z,49.70
2022-08-08T21:50:55.860Z,49.70
2022-08-08T21:54:31.838Z,49.70
2022-08-08T21:56:51.689Z,49.60
2022-08-08T22:00:01.566Z,49.50
2022-08-08T22:02:45.640Z,49.80
2022-08-08T22:05:32.348Z,49.90
2022-08-08T22:08:26.339Z,49.70
2022-08-08T22:11:52.922Z,50.10
2022-08-08T22:14:31.545Z,50.20
2022-08-08T22:17:19.362Z,50.30
2022-08-08T22:20:13.189Z,50.20
2022-08-08T22:23:07.844Z,50.60
2022-08-08T22:26:28.143Z,50.70
2022-08-08T22:29:56.552Z,51.00
2022-08-08T22:32:11.057Z,50.90
2022-08-08T22:34:58.133Z,51.00
2022-08-08T22:37:54.138Z,51.60
2022-08-08T22:40:41.840Z,51.20
2022-08-08T22:43:29.716Z,51.80
2022-08-08T22:46:18.795Z,51.70
2022-08-08T22:49:06.101Z,51.70
2022-08-08T22:51:54.099Z,51.80
2022-08-08T22:54:56.123Z,51.90
2022-08-08T22:57:50.057Z,52.00
2022-08-08T23:00:38.183Z,52.20
2022-08-08T23:03:52.845Z,52.30
2022-08-08T23:06:32.959Z,52.50
2022-08-08T23:09:19.260Z,52.80
2022-08-08T23:12:39.737Z,53.00
2022-08-08T23:16:39.187Z,52.90
2022-08-08T23:18:32.709Z,53.40
2022-08-08T23:21:19.406Z,53.20
2022-08-08T23:24:08.118Z,53.40
2022-08-08T23:26:56.375Z,53.40
2022-08-08T23:29:43.662Z,53.60
2022-08-08T23:32:44.963Z,53.80
2022-08-08T23:35:34.504Z,53.60
2022-08-08T23:38:44.422Z,53.90
2022-08-08T23:41:45.665Z,53.80
2022-08-08T23:44:33.859Z,53.80
2022-08-08T23:49:05.197Z,54.00
2022-08-08T23:50:35.026Z,54.10
2022-08-08T23:53:55.982Z,54.10
2022-08-08T23:56:32.325Z,54.10
2022-08-08T23:59:21.093Z,54.40
